Time;durP1;ratioP1;P1;durP2;ratioP2;P2;SDS_P1;SDS_P2;PMS_P1;PMS_P2;Temp;Humidity;BMP_temperature;BMP_pressure;BME280_temperature;BME280_humidity;BME280_pressure;Samples;Min_cycle;Max_cycle;Signal;HPM_P1;HPM_P2
2022/04/28 00:00:43;;;;;;;19.50;13.38;;;;;;;;;;4983422;28;20088;-70
2022/04/28 00:03:10;;;;;;;19.33;13.52;;;;;;;;;;4983972;28;20066;-70
2022/04/28 00:05:36;;;;;;;19.63;13.23;;;;;;;;;;4982928;28;20089;-70
2022/04/28 00:08:02;;;;;;;20.23;13.48;;;;;;;;;;4984099;28;20117;-70
2022/04/28 00:10:28;;;;;;;19.40;13.57;;;;;;;;;;4983265;28;20119;-70
2022/04/28 00:12:53;;;;;;;17.23;12.38;;;;;;;;;;4983862;28;20042;-70
2022/04/28 00:15:19;;;;;;;16.77;12.15;;;;;;;;;;4982934;28;20038;-69
2022/04/28 00:17:45;;;;;;;16.85;12.45;;;;;;;;;;4983931;28;20045;-70
2022/04/28 00:20:10;;;;;;;16.58;12.65;;;;;;;;;;4983645;28;20050;-70
2022/04/28 00:22:36;;;;;;;20.92;12.18;;;;;;;;;;4983151;28;20380;-70
2022/04/28 00:25:03;;;;;;;19.88;12.88;;;;;;;;;;4983276;28;20077;-70
2022/04/28 00:27:29;;;;;;;17.65;12.38;;;;;;;;;;4983580;28;20045;-69
2022/04/28 00:29:56;;;;;;;19.55;13.20;;;;;;;;;;4983735;28;20034;-69
2022/04/28 00:32:21;;;;;;;17.05;12.90;;;;;;;;;;4982629;28;20030;-70
2022/04/28 00:34:47;;;;;;;18.80;12.35;;;;;;;;;;4965853;28;20112;-70
2022/04/28 00:37:13;;;;;;;19.80;12.73;;;;;;;;;;4965310;28;20510;-70
2022/04/28 00:39:39;;;;;;;19.13;13.73;;;;;;;;;;4983426;28;20077;-70
2022/04/28 00:42:10;;;;;;;17.00;12.05;;;;;;;;;;4981236;28;20050;-69
2022/04/28 00:44:35;;;;;;;18.75;12.60;;;;;;;;;;4964683;28;20031;-70
2022/04/28 00:47:00;;;;;;;22.02;13.77;;;;;;;;;;4965012;28;20049;-70
2022/04/28 00:52:10;;;;;;;20.00;13.30;;;;;;;;;;4965458;28;20037;-69
2022/04/28 00:54:36;;;;;;;25.88;14.50;;;;;;;;;;4963771;28;20045;-70
2022/04/28 00:57:02;;;;;;;22.70;13.90;;;;;;;;;;4981810;28;20101;-70
2022/04/28 00:59:29;;;;;;;18.45;12.88;;;;;;;;;;4983323;28;20038;-70
2022/04/28 01:01:54;;;;;;;21.98;12.85;;;;;;;;;;4965504;28;20034;-69
2022/04/28 01:04:20;;;;;;;20.42;13.82;;;;;;;;;;4982589;28;20048;-70
2022/04/28 01:06:46;;;;;;;20.35;13.82;;;;;;;;;;4980936;28;20117;-70
2022/04/28 01:09:14;;;;;;;19.55;13.52;;;;;;;;;;4965404;28;20034;-70
2022/04/28 01:11:40;;;;;;;26.55;13.80;;;;;;;;;;4981226;28;20045;-70
2022/04/28 01:14:26;;;;;;;18.58;12.90;;;;;;;;;;4965289;28;20115;-69
2022/04/28 01:17:02;;;;;;;20.65;13.45;;;;;;;;;;4963887;28;20034;-70
2022/04/28 01:19:28;;;;;;;19.65;13.02;;;;;;;;;;4980620;28;20086;-69
2022/04/28 01:21:53;;;;;;;19.73;13.77;;;;;;;;;;4964808;28;20074;-70
2022/04/28 01:24:19;;;;;;;23.33;13.27;;;;;;;;;;4965063;28;20120;-70
2022/04/28 01:26:46;;;;;;;19.38;13.95;;;;;;;;;;4964351;28;20052;-70
2022/04/28 01:29:12;;;;;;;21.95;14.13;;;;;;;;;;4963780;28;20454;-71
2022/04/28 01:31:37;;;;;;;22.85;14.93;;;;;;;;;;4964582;28;20057;-70
2022/04/28 01:34:05;;;;;;;26.13;16.02;;;;;;;;;;4964593;28;20096;-70
2022/04/28 01:36:32;;;;;;;26.40;15.82;;;;;;;;;;4964402;28;20040;-70
2022/04/28 01:38:58;;;;;;;25.60;16.83;;;;;;;;;;4964091;28;20046;-70
2022/04/28 01:41:23;;;;;;;24.58;16.20;;;;;;;;;;4964973;28;20038;-70
2022/04/28 01:43:49;;;;;;;33.53;17.48;;;;;;;;;;4960954;28;20027;-70
2022/04/28 01:46:15;;;;;;;27.02;17.13;;;;;;;;;;4961464;28;20042;-70
2022/04/28 01:48:55;;;;;;;28.58;17.52;;;;;;;;;;4981946;28;20038;-70
2022/04/28 01:54:59;;;;;;;32.65;20.13;;;;;;;;;;4978518;28;20069;-70
2022/04/28 01:57:59;;;;;;;34.30;18.63;;;;;;;;;;4957184;28;20125;-70
2022/04/28 02:00:26;;;;;;;31.65;18.27;;;;;;;;;;4980904;28;20038;-70
2022/04/28 02:03:00;;;;;;;28.77;17.98;;;;;;;;;;4964952;28;20057;-70
2022/04/28 02:05:26;;;;;;;28.42;17.73;;;;;;;;;;4964162;28;20732;-70
2022/04/28 02:07:52;;;;;;;30.35;18.00;;;;;;;;;;4964221;28;20046;-70
2022/04/28 02:10:17;;;;;;;27.15;16.52;;;;;;;;;;4964169;28;20133;-70
2022/04/28 02:12:43;;;;;;;24.63;16.40;;;;;;;;;;4962548;28;20056;-70
2022/04/28 02:15:45;;;;;;;26.52;16.23;;;;;;;;;;4901775;29;20064;-70
2022/04/28 02:18:46;;;;;;;;;;;;;;;;;;4915226;29;20591;-70
2022/04/28 02:21:11;;;;;;;23.08;15.35;;;;;;;;;;4960127;28;19918;-70
2022/04/28 02:23:37;;;;;;;26.90;17.10;;;;;;;;;;4963114;28;20065;-70
2022/04/28 02:26:02;;;;;;;27.08;16.38;;;;;;;;;;4963857;28;20103;-70
2022/04/28 02:28:28;;;;;;;31.30;18.10;;;;;;;;;;4963803;28;20400;-70
2022/04/28 02:30:53;;;;;;;29.70;18.08;;;;;;;;;;4964116;28;20050;-70
2022/04/28 02:33:19;;;;;;;40.65;22.85;;;;;;;;;;4963062;28;20038;-70
2022/04/28 02:36:05;;;;;;;39.42;22.40;;;;;;;;;;4980548;28;20069;-70
2022/04/28 02:38:35;;;;;;;45.85;24.20;;;;;;;;;;4964105;28;20030;-69
2022/04/28 02:41:03;;;;;;;43.42;23.20;;;;;;;;;;4963711;28;20046;-69
2022/04/28 02:43:29;;;;;;;49.40;25.05;;;;;;;;;;4966002;28;20049;-70
2022/04/28 02:46:02;;;;;;;49.97;24.63;;;;;;;;;;4955741;28;20038;-70
2022/04/28 02:48:41;;;;;;;43.65;22.90;;;;;;;;;;4967998;28;20101;-70
2022/04/28 02:51:07;;;;;;;53.22;24.38;;;;;;;;;;4967881;28;20038;-69
2022/04/28 02:53:34;;;;;;;34.72;19.77;;;;;;;;;;4983061;28;20121;-70
2022/04/28 02:56:01;;;;;;;35.10;20.13;;;;;;;;;;4965945;28;20038;-70
2022/04/28 02:58:26;;;;;;;34.60;19.67;;;;;;;;;;4983122;28;20042;-70
2022/04/28 03:00:52;;;;;;;35.72;20.90;;;;;;;;;;4985600;28;20045;-69
2022/04/28 03:03:17;;;;;;;35.40;20.30;;;;;;;;;;4967647;28;20041;-70
2022/04/28 03:11:11;;;;;;;33.33;18.67;;;;;;;;;;4967594;28;20042;-70
2022/04/28 03:13:37;;;;;;;27.15;16.88;;;;;;;;;;4967523;28;20049;-70
2022/04/28 03:16:02;;;;;;;32.63;19.15;;;;;;;;;;4984521;28;20034;-70
2022/04/28 03:18:50;;;;;;;31.98;18.75;;;;;;;;;;4963499;28;20038;-70
2022/04/28 03:21:16;;;;;;;32.70;18.83;;;;;;;;;;4984981;28;20057;-70
2022/04/28 03:23:41;;;;;;;32.53;19.88;;;;;;;;;;4984913;28;20030;-69
2022/04/28 03:26:10;;;;;;;35.13;20.08;;;;;;;;;;4966544;28;20038;-70
2022/04/28 03:28:36;;;;;;;33.22;19.35;;;;;;;;;;4966396;28;20049;-70
2022/04/28 03:31:03;;;;;;;31.05;18.27;;;;;;;;;;4984620;28;20038;-69
2022/04/28 03:33:34;;;;;;;38.92;21.40;;;;;;;;;;4967116;28;20029;-70
2022/04/28 03:36:00;;;;;;;38.63;20.98;;;;;;;;;;4984084;28;20037;-69
2022/04/28 03:38:26;;;;;;;41.85;21.80;;;;;;;;;;4967197;28;20038;-70
2022/04/28 03:40:52;;;;;;;45.90;25.40;;;;;;;;;;4965965;28;20034;-70
2022/04/28 03:43:18;;;;;;;39.08;22.58;;;;;;;;;;4966878;28;20026;-70
2022/04/28 03:45:44;;;;;;;39.50;22.65;;;;;;;;;;4965156;28;20034;-69
2022/04/28 03:48:17;;;;;;;40.80;23.30;;;;;;;;;;4983287;28;20180;-70
2022/04/28 03:50:43;;;;;;;33.78;21.55;;;;;;;;;;4983632;28;20076;-70
2022/04/28 03:53:09;;;;;;;34.33;20.85;;;;;;;;;;4983333;28;20136;-70
2022/04/28 03:55:35;;;;;;;35.65;21.45;;;;;;;;;;4966251;28;20037;-71
2022/04/28 03:58:01;;;;;;;33.17;21.63;;;;;;;;;;4984172;28;20042;-69
2022/04/28 04:00:27;;;;;;;38.33;23.00;;;;;;;;;;4965399;28;20080;-69
2022/04/28 04:03:01;;;;;;;42.67;24.15;;;;;;;;;;4965066;28;20834;-70
2022/04/28 04:05:27;;;;;;;53.60;26.95;;;;;;;;;;4965765;28;20128;-70
2022/04/28 04:07:53;;;;;;;62.50;30.63;;;;;;;;;;4966170;28;20034;-69
2022/04/28 04:10:28;;;;;;;58.78;27.80;;;;;;;;;;4966622;28;20038;-69
2022/04/28 04:12:57;;;;;;;53.60;26.70;;;;;;;;;;4965818;28;20038;-70
2022/04/28 04:15:23;;;;;;;45.47;25.17;;;;;;;;;;4983292;28;20089;-69
2022/04/28 04:18:04;;;;;;;43.42;23.05;;;;;;;;;;4966536;28;20123;-70
2022/04/28 04:20:39;;;;;;;43.17;22.35;;;;;;;;;;4965617;28;20046;-70
2022/04/28 04:23:05;;;;;;;40.97;23.20;;;;;;;;;;4966423;28;20038;-70
2022/04/28 04:25:31;;;;;;;43.70;23.52;;;;;;;;;;4980991;28;20033;-70
2022/04/28 04:27:57;;;;;;;40.63;24.05;;;;;;;;;;4966314;28;20372;-70
2022/04/28 04:33:58;;;;;;;46.03;24.45;;;;;;;;;;4935664;28;20061;-69
2022/04/28 04:36:23;;;;;;;44.95;23.95;;;;;;;;;;4964654;28;20034;-70
2022/04/28 04:38:50;;;;;;;41.15;22.50;;;;;;;;;;4965748;28;20104;-70
2022/04/28 04:41:16;;;;;;;38.92;22.92;;;;;;;;;;4965843;28;20832;-70
2022/04/28 04:43:42;;;;;;;49.72;26.10;;;;;;;;;;4983340;28;20125;-71
2022/04/28 04:46:09;;;;;;;57.03;27.50;;;;;;;;;;4964227;28;20034;-70
2022/04/28 04:48:52;;;;;;;62.95;30.02;;;;;;;;;;4983623;28;20108;-70
2022/04/28 04:51:35;;;;;;;64.20;28.85;;;;;;;;;;4965565;28;20376;-70
2022/04/28 04:54:17;;;;;;;57.92;28.17;;;;;;;;;;4983162;28;20031;-71
2022/04/28 04:56:43;;;;;;;55.25;28.48;;;;;;;;;;4980197;28;20091;-72
2022/04/28 04:59:08;;;;;;;56.08;28.98;;;;;;;;;;4965499;28;20034;-72
2022/04/28 05:01:34;;;;;;;58.63;29.90;;;;;;;;;;4965650;28;20121;-72
2022/04/28 05:04:35;;;;;;;53.08;26.13;;;;;;;;;;4883827;29;20470;-71
2022/04/28 05:07:30;;;;;;;48.40;26.38;;;;;;;;;;4979308;28;20519;-71
2022/04/28 05:09:56;;;;;;;56.80;27.90;;;;;;;;;;4965269;28;20062;-72
2022/04/28 05:12:21;;;;;;;33.22;22.42;;;;;;;;;;4964993;28;20040;-71
2022/04/28 05:14:51;;;;;;;26.27;18.25;;;;;;;;;;4964817;28;20034;-71
2022/04/28 05:17:17;;;;;;;24.38;15.48;;;;;;;;;;4963421;28;20038;-71
2022/04/28 05:20:09;;;;;;;19.85;14.05;;;;;;;;;;4954553;28;20049;-71
2022/04/28 05:22:54;;;;;;;17.02;12.07;;;;;;;;;;4964962;28;20042;-71
2022/04/28 05:25:38;;;;;;;13.95;10.13;;;;;;;;;;4982313;28;20097;-71
2022/04/28 05:28:29;;;;;;;12.57;10.50;;;;;;;;;;4982125;28;20129;-72
2022/04/28 05:31:13;;;;;;;16.00;10.57;;;;;;;;;;4981394;28;20120;-72
2022/04/28 05:34:01;;;;;;;12.80;9.20;;;;;;;;;;4964827;28;20522;-72
2022/04/28 05:36:53;;;;;;;15.73;11.38;;;;;;;;;;4964676;28;20176;-71
2022/04/28 05:39:19;;;;;;;14.65;11.27;;;;;;;;;;4980841;28;20046;-71
2022/04/28 05:41:45;;;;;;;13.73;10.90;;;;;;;;;;4964103;28;20042;-71
2022/04/28 05:46:55;;;;;;;12.80;10.10;;;;;;;;;;4964010;28;20042;-71
2022/04/28 05:49:21;;;;;;;14.95;11.00;;;;;;;;;;4978795;28;20042;-71
2022/04/28 05:51:48;;;;;;;14.30;10.70;;;;;;;;;;4978531;28;20042;-71
2022/04/28 05:54:15;;;;;;;7.45;6.65;;;;;;;;;;4964230;28;20054;-72
2022/04/28 05:56:42;;;;;;;6.95;6.18;;;;;;;;;;4963900;28;20042;-72
2022/04/28 05:59:11;;;;;;;8.70;7.00;;;;;;;;;;4964851;28;20042;-72
2022/04/28 06:01:46;;;;;;;6.38;5.75;;;;;;;;;;4982028;28;20045;-72
2022/04/28 06:04:15;;;;;;;12.38;6.95;;;;;;;;;;4963325;28;20029;-72
2022/04/28 06:06:45;;;;;;;9.05;7.80;;;;;;;;;;4964145;28;20037;-72
2022/04/28 06:09:30;;;;;;;9.18;8.10;;;;;;;;;;4964428;28;20093;-72
2022/04/28 06:11:55;;;;;;;10.88;8.85;;;;;;;;;;4964354;28;20046;-72
2022/04/28 06:14:21;;;;;;;7.95;7.15;;;;;;;;;;4980854;28;20081;-73
2022/04/28 06:17:05;;;;;;;8.95;7.43;;;;;;;;;;4980644;28;20053;-72
2022/04/28 06:19:32;;;;;;;8.55;7.55;;;;;;;;;;4964458;28;20034;-72
2022/04/28 06:22:00;;;;;;;11.25;7.90;;;;;;;;;;4982208;28;20069;-71
2022/04/28 06:24:26;;;;;;;8.40;7.30;;;;;;;;;;4963198;28;20077;-72
2022/04/28 06:26:53;;;;;;;9.02;7.57;;;;;;;;;;4964154;28;20407;-71
2022/04/28 06:29:19;;;;;;;9.48;7.22;;;;;;;;;;4963667;28;20049;-71
2022/04/28 06:31:44;;;;;;;11.32;8.60;;;;;;;;;;4964260;28;20460;-71
2022/04/28 06:34:36;;;;;;;8.90;7.93;;;;;;;;;;4981443;28;20153;-72
2022/04/28 06:37:04;;;;;;;10.35;8.50;;;;;;;;;;4962886;28;20050;-71
2022/04/28 06:39:30;;;;;;;10.50;8.75;;;;;;;;;;4964257;28;20404;-71
2022/04/28 06:41:56;;;;;;;11.18;9.40;;;;;;;;;;4981486;28;20065;-72
2022/04/28 06:44:41;;;;;;;11.00;9.20;;;;;;;;;;4978265;28;20038;-71
2022/04/28 06:47:25;;;;;;;11.18;8.73;;;;;;;;;;4979290;28;20049;-71
2022/04/28 06:50:09;;;;;;;9.13;8.10;;;;;;;;;;4981261;28;20522;-71
2022/04/28 06:52:53;;;;;;;10.80;9.50;;;;;;;;;;4981427;28;20057;-72
2022/04/28 06:55:29;;;;;;;9.32;8.15;;;;;;;;;;4963103;28;20565;-72
2022/04/28 06:57:55;;;;;;;9.23;7.63;;;;;;;;;;4962358;28;20407;-72
2022/04/28 07:00:33;;;;;;;9.30;8.00;;;;;;;;;;4962914;28;20480;-72
2022/04/28 07:02:59;;;;;;;11.90;8.80;;;;;;;;;;4963672;28;20042;-72
2022/04/28 07:05:28;;;;;;;8.75;7.25;;;;;;;;;;4962559;28;20080;-72
2022/04/28 07:07:57;;;;;;;9.55;6.80;;;;;;;;;;4962999;28;20041;-72
2022/04/28 07:10:30;;;;;;;7.10;6.28;;;;;;;;;;4962800;28;20443;-72
2022/04/28 07:12:55;;;;;;;7.35;6.30;;;;;;;;;;4963710;28;20492;-72
2022/04/28 07:15:27;;;;;;;8.68;7.00;;;;;;;;;;4979442;28;20546;-72
2022/04/28 07:18:18;;;;;;;7.45;6.18;;;;;;;;;;4981137;28;20522;-71
2022/04/28 07:20:44;;;;;;;8.77;6.90;;;;;;;;;;4962377;28;20042;-72
2022/04/28 07:23:11;;;;;;;7.03;6.32;;;;;;;;;;4963439;28;20034;-71
2022/04/28 07:25:36;;;;;;;16.58;6.35;;;;;;;;;;4961966;28;21184;-72
2022/04/28 07:28:02;;;;;;;8.23;6.65;;;;;;;;;;4962651;28;20531;-72
2022/04/28 07:30:50;;;;;;;6.47;5.88;;;;;;;;;;4955649;28;20046;-72
2022/04/28 07:33:36;;;;;;;7.07;5.68;;;;;;;;;;4984077;28;20104;-72
2022/04/28 07:36:20;;;;;;;9.48;6.63;;;;;;;;;;4983719;28;20419;-71
2022/04/28 07:39:04;;;;;;;8.27;6.55;;;;;;;;;;4984300;28;20442;-72
2022/04/28 07:41:36;;;;;;;7.75;6.13;;;;;;;;;;4965982;28;20446;-71
2022/04/28 07:44:01;;;;;;;11.63;6.35;;;;;;;;;;4983535;28;20487;-72
2022/04/28 07:46:27;;;;;;;7.15;6.25;;;;;;;;;;4965550;28;20124;-72
2022/04/28 07:48:53;;;;;;;7.55;6.32;;;;;;;;;;4966716;28;20077;-71
2022/04/28 07:51:19;;;;;;;8.48;7.07;;;;;;;;;;4983807;28;20053;-72
2022/04/28 07:53:44;;;;;;;8.57;7.25;;;;;;;;;;4965527;28;20719;-72
2022/04/28 07:56:13;;;;;;;8.07;7.20;;;;;;;;;;4965807;28;20127;-71
2022/04/28 07:58:38;;;;;;;8.40;7.07;;;;;;;;;;4983998;28;20050;-72
2022/04/28 08:01:27;;;;;;;8.50;7.22;;;;;;;;;;4975323;28;20050;-73
2022/04/28 08:03:53;;;;;;;7.28;6.47;;;;;;;;;;4964892;28;20061;-72
2022/04/28 08:06:19;;;;;;;8.40;7.20;;;;;;;;;;4965058;28;20084;-73
2022/04/28 08:08:45;;;;;;;10.00;7.30;;;;;;;;;;4966324;28;20046;-73
2022/04/28 08:11:11;;;;;;;8.88;6.78;;;;;;;;;;4983684;28;20134;-73
2022/04/28 08:13:37;;;;;;;10.30;6.22;;;;;;;;;;4965683;28;20110;-73
2022/04/28 08:16:21;;;;;;;7.00;5.85;;;;;;;;;;4982182;28;20093;-73
2022/04/28 08:18:49;;;;;;;9.75;6.50;;;;;;;;;;4966508;28;20108;-73
2022/04/28 08:21:31;;;;;;;6.68;5.35;;;;;;;;;;4965715;28;20461;-72
2022/04/28 08:23:57;;;;;;;5.72;5.20;;;;;;;;;;4965687;28;20479;-73
2022/04/28 08:26:24;;;;;;;7.50;5.90;;;;;;;;;;4964698;28;20058;-73
2022/04/28 08:28:50;;;;;;;5.78;5.10;;;;;;;;;;4966076;28;20042;-72
2022/04/28 08:31:17;;;;;;;5.82;5.20;;;;;;;;;;4965617;28;20125;-74
2022/04/28 08:33:43;;;;;;;7.32;5.75;;;;;;;;;;4965519;28;20034;-73
2022/04/28 08:36:09;;;;;;;7.07;5.63;;;;;;;;;;4964724;28;20475;-74
2022/04/28 08:38:38;;;;;;;7.88;5.10;;;;;;;;;;4965770;28;20124;-73
2022/04/28 08:41:09;;;;;;;7.68;5.32;;;;;;;;;;4982494;28;20470;-73
2022/04/28 08:43:58;;;;;;;5.50;4.88;;;;;;;;;;4982529;28;20100;-73
2022/04/28 08:49:12;;;;;;;6.63;5.20;;;;;;;;;;4964214;28;20116;-73
2022/04/28 08:51:39;;;;;;;5.90;5.20;;;;;;;;;;4965623;28;20479;-74
2022/04/28 08:54:05;;;;;;;5.38;4.88;;;;;;;;;;4965576;28;20030;-73
2022/04/28 08:56:31;;;;;;;5.95;4.93;;;;;;;;;;4965085;28;20125;-72
2022/04/28 08:59:02;;;;;;;7.20;5.10;;;;;;;;;;4964603;28;20033;-72
2022/04/28 09:01:29;;;;;;;7.25;4.90;;;;;;;;;;4982182;28;20987;-74
2022/04/28 09:04:24;;;;;;;5.20;4.70;;;;;;;;;;4982538;28;20089;-72
2022/04/28 09:07:40;;;;;;;8.63;5.13;;;;;;;;;;4901496;29;20164;-73
2022/04/28 09:10:27;;;;;;;8.77;4.75;;;;;;;;;;4979750;28;20241;-71
2022/04/28 09:16:03;;;;;;;6.93;5.18;;;;;;;;;;4980611;28;20041;-72
2022/04/28 09:18:28;;;;;;;6.07;5.30;;;;;;;;;;4965404;28;20030;-73
2022/04/28 09:20:55;;;;;;;5.68;5.10;;;;;;;;;;4964341;28;20096;-73
2022/04/28 09:23:21;;;;;;;10.30;5.38;;;;;;;;;;4982767;28;20034;-73
2022/04/28 09:25:52;;;;;;;8.60;5.82;;;;;;;;;;4964685;28;20550;-73
2022/04/28 09:28:17;;;;;;;6.47;5.25;;;;;;;;;;4965342;28;20128;-72
2022/04/28 09:30:49;;;;;;;6.10;4.80;;;;;;;;;;4965122;28;20498;-71
2022/04/28 09:33:36;;;;;;;11.30;4.72;;;;;;;;;;4971710;28;20455;-72
2022/04/28 09:36:20;;;;;;;7.32;5.50;;;;;;;;;;4981913;28;20064;-72
2022/04/28 09:38:55;;;;;;;5.25;4.50;;;;;;;;;;4964987;28;20451;-72
2022/04/28 09:44:12;;;;;;;6.47;4.75;;;;;;;;;;4963767;28;20038;-71
2022/04/28 09:46:43;;;;;;;5.57;4.80;;;;;;;;;;4973356;28;20034;-73
2022/04/28 09:49:12;;;;;;;8.85;4.80;;;;;;;;;;4964900;28;20046;-71
2022/04/28 09:52:04;;;;;;;5.28;4.75;;;;;;;;;;4981620;28;20527;-72
2022/04/28 09:54:47;;;;;;;5.30;4.80;;;;;;;;;;4980966;28;20034;-73
2022/04/28 09:57:13;;;;;;;4.32;3.92;;;;;;;;;;4964090;28;20042;-72
2022/04/28 09:59:40;;;;;;;8.88;5.05;;;;;;;;;;4964610;28;20399;-72
2022/04/28 10:02:16;;;;;;;6.70;4.88;;;;;;;;;;4964650;28;20038;-72
2022/04/28 10:04:42;;;;;;;6.03;4.70;;;;;;;;;;4963642;28;20030;-72
2022/04/28 10:07:20;;;;;;;5.72;4.30;;;;;;;;;;4963685;28;20117;-72
2022/04/28 10:09:50;;;;;;;6.78;5.13;;;;;;;;;;4964791;28;20038;-72
2022/04/28 10:12:26;;;;;;;10.48;4.90;;;;;;;;;;4964825;28;20030;-72
2022/04/28 10:15:21;;;;;;;;;;;;;;;;;;4964020;28;20045;-72
2022/04/28 10:17:50;;;;;;;5.18;4.68;;;;;;;;;;4963661;28;19997;-71
2022/04/28 10:20:28;;;;;;;9.23;5.20;;;;;;;;;;4963979;28;20100;-72
2022/04/28 10:23:01;;;;;;;6.30;4.43;;;;;;;;;;4964407;28;20590;-72
2022/04/28 10:34:11;;;;;;;5.18;3.85;;;;;;;;;;4981691;28;20399;-72
2022/04/28 10:36:53;;;;;;;6.63;3.83;;;;;;;;;;4981418;28;20065;-71
2022/04/28 10:39:42;;;;;;;5.82;4.47;;;;;;;;;;4979160;28;20046;-73
2022/04/28 10:42:33;;;;;;;4.68;4.28;;;;;;;;;;4979918;28;20098;-73
2022/04/28 10:45:00;;;;;;;4.90;3.72;;;;;;;;;;4953502;28;20510;-73
2022/04/28 10:47:37;;;;;;;5.57;4.50;;;;;;;;;;4978340;28;20065;-73
2022/04/28 10:50:20;;;;;;;5.72;4.47;;;;;;;;;;4980000;28;20034;-72
2022/04/28 10:52:56;;;;;;;4.93;4.32;;;;;;;;;;4981683;28;20045;-72
2022/04/28 10:55:23;;;;;;;6.75;4.20;;;;;;;;;;4982982;28;20046;-72
2022/04/28 10:57:49;;;;;;;5.72;4.63;;;;;;;;;;4981483;28;20042;-71
2022/04/28 11:00:33;;;;;;;4.40;3.65;;;;;;;;;;4979785;28;20039;-72
2022/04/28 11:02:59;;;;;;;9.93;4.82;;;;;;;;;;4982871;28;20048;-72
2022/04/28 11:05:27;;;;;;;5.35;4.25;;;;;;;;;;4967665;28;20406;-72
2022/04/28 11:07:53;;;;;;;5.20;4.70;;;;;;;;;;4984571;28;20042;-73
2022/04/28 11:10:19;;;;;;;5.80;4.28;;;;;;;;;;4967736;28;20077;-72
2022/04/28 11:12:44;;;;;;;9.73;4.93;;;;;;;;;;4984436;28;20138;-71
2022/04/28 11:15:13;;;;;;;10.50;5.45;;;;;;;;;;4985119;28;20041;-71
2022/04/28 11:17:44;;;;;;;10.30;5.43;;;;;;;;;;4975261;28;20399;-72
2022/04/28 11:20:15;;;;;;;5.43;4.78;;;;;;;;;;4985054;28;20053;-72
2022/04/28 11:22:51;;;;;;;7.05;4.80;;;;;;;;;;4966131;28;20117;-72
2022/04/28 11:25:19;;;;;;;4.80;4.30;;;;;;;;;;4984551;28;20077;-71
2022/04/28 11:27:47;;;;;;;5.95;4.43;;;;;;;;;;4984250;28;20038;-71
2022/04/28 11:30:17;;;;;;;;;;;;;;;;;;4967487;28;20037;-71
2022/04/28 11:32:59;;;;;;;4.93;4.03;;;;;;;;;;4984927;28;20008;-71
2022/04/28 11:35:35;;;;;;;5.30;4.40;;;;;;;;;;4983874;28;20100;-72
2022/04/28 11:38:00;;;;;;;5.38;4.40;;;;;;;;;;4984120;28;20046;-71
2022/04/28 11:40:26;;;;;;;6.63;4.68;;;;;;;;;;4984534;28;20088;-71
2022/04/28 11:42:59;;;;;;;10.88;4.18;;;;;;;;;;4984789;28;20050;-72
2022/04/28 11:45:26;;;;;;;6.10;4.47;;;;;;;;;;4983169;28;20054;-71
2022/04/28 11:47:55;;;;;;;6.35;4.97;;;;;;;;;;4966836;28;20560;-70
2022/04/28 11:50:23;;;;;;;5.80;5.03;;;;;;;;;;4984597;28;20484;-71
2022/04/28 11:53:06;;;;;;;5.38;4.68;;;;;;;;;;4984591;28;20070;-71
2022/04/28 11:55:38;;;;;;;5.93;4.50;;;;;;;;;;4983544;28;20061;-72
2022/04/28 11:58:05;;;;;;;6.18;4.25;;;;;;;;;;4983859;28;20098;-70
2022/04/28 12:00:37;;;;;;;4.85;4.00;;;;;;;;;;4984379;28;20101;-71
2022/04/28 12:03:03;;;;;;;6.38;4.60;;;;;;;;;;4984479;28;20132;-71
2022/04/28 12:05:32;;;;;;;4.88;4.05;;;;;;;;;;4984243;28;20523;-71
2022/04/28 12:07:58;;;;;;;6.03;4.45;;;;;;;;;;4982622;28;20045;-71
2022/04/28 12:16:17;;;;;;;5.35;3.83;;;;;;;;;;4983465;28;20522;-72
2022/04/28 12:21:36;;;;;;;4.25;3.85;;;;;;;;;;4983174;28;20041;-72
2022/04/28 12:24:11;;;;;;;5.75;4.20;;;;;;;;;;4983665;28;20483;-73
2022/04/28 12:26:40;;;;;;;9.60;4.63;;;;;;;;;;4982931;28;20136;-71
2022/04/28 12:29:11;;;;;;;6.38;3.85;;;;;;;;;;4983148;28;20402;-75
2022/04/28 12:31:37;;;;;;;4.57;4.10;;;;;;;;;;4983096;28;20113;-71
2022/04/28 12:34:11;;;;;;;4.20;3.80;;;;;;;;;;4983068;28;20038;-71
2022/04/28 12:36:48;;;;;;;8.20;4.50;;;;;;;;;;4983255;28;20046;-71
2022/04/28 12:39:16;;;;;;;5.20;3.97;;;;;;;;;;4982904;28;20080;-73
2022/04/28 12:41:44;;;;;;;4.85;4.30;;;;;;;;;;4983767;28;20050;-72
2022/04/28 12:44:09;;;;;;;3.67;3.20;;;;;;;;;;4983486;28;20046;-71
2022/04/28 12:46:38;;;;;;;3.92;3.53;;;;;;;;;;4983013;28;20042;-71
2022/04/28 12:49:08;;;;;;;5.88;4.30;;;;;;;;;;4983396;28;20060;-71
2022/04/28 12:51:50;;;;;;;5.63;4.07;;;;;;;;;;4965096;28;20466;-71
2022/04/28 12:54:17;;;;;;;;;;;;;;;;;;4983486;28;20506;-70
2022/04/28 12:56:52;;;;;;;4.10;3.65;;;;;;;;;;4983093;28;19918;-73
2022/04/28 12:59:17;;;;;;;4.95;3.75;;;;;;;;;;4983663;28;20050;-70
2022/04/28 13:01:46;;;;;;;4.30;3.90;;;;;;;;;;4982424;28;20034;-70
2022/04/28 13:04:22;;;;;;;6.70;4.30;;;;;;;;;;4982964;28;20034;-69
2022/04/28 13:06:49;;;;;;;5.07;4.22;;;;;;;;;;4980435;28;20046;-70
2022/04/28 13:09:16;;;;;;;4.82;4.22;;;;;;;;;;4982560;28;20042;-69
2022/04/28 13:11:44;;;;;;;5.05;4.10;;;;;;;;;;4982797;28;20034;-70
2022/04/28 13:14:12;;;;;;;5.53;3.70;;;;;;;;;;4981571;28;20550;-70
2022/04/28 13:16:39;;;;;;;5.30;4.28;;;;;;;;;;4982120;28;20033;-69
2022/04/28 13:19:05;;;;;;;11.85;4.32;;;;;;;;;;4982951;28;20562;-70
2022/04/28 13:21:31;;;;;;;6.60;4.20;;;;;;;;;;4982580;28;20046;-69
2022/04/28 13:23:57;;;;;;;4.75;4.03;;;;;;;;;;4981598;28;20077;-69
2022/04/28 13:26:24;;;;;;;4.50;4.10;;;;;;;;;;4981243;28;20133;-69
2022/04/28 13:28:52;;;;;;;5.55;4.20;;;;;;;;;;4982552;28;20045;-69
2022/04/28 13:31:17;;;;;;;7.25;3.70;;;;;;;;;;4982650;28;20034;-69
2022/04/28 13:33:43;;;;;;;4.90;4.40;;;;;;;;;;4982457;28;20667;-70
2022/04/28 13:36:09;;;;;;;5.50;4.13;;;;;;;;;;4981640;28;20035;-69
2022/04/28 13:38:36;;;;;;;5.03;3.65;;;;;;;;;;4981524;28;20038;-70
2022/04/28 13:41:03;;;;;;;5.40;3.75;;;;;;;;;;4979650;28;20785;-70
2022/04/28 13:43:31;;;;;;;4.70;3.90;;;;;;;;;;4979971;28;20038;-70
2022/04/28 13:45:59;;;;;;;6.53;4.05;;;;;;;;;;4979488;28;20038;-70
2022/04/28 13:48:24;;;;;;;7.07;4.28;;;;;;;;;;4979207;28;20045;-70
2022/04/28 13:50:50;;;;;;;4.18;3.78;;;;;;;;;;4980439;28;20038;-70
2022/04/28 13:53:18;;;;;;;3.70;3.40;;;;;;;;;;4979826;28;20488;-70
2022/04/28 13:55:47;;;;;;;4.93;4.00;;;;;;;;;;4979890;28;20129;-70
2022/04/28 13:58:12;;;;;;;4.05;3.65;;;;;;;;;;4979375;28;20049;-70
2022/04/28 14:00:39;;;;;;;4.55;3.75;;;;;;;;;;4980948;28;20042;-70
2022/04/28 14:03:04;;;;;;;3.83;3.13;;;;;;;;;;4980919;28;20042;-70
2022/04/28 14:05:30;;;;;;;4.03;3.63;;;;;;;;;;4980665;28;20081;-70
2022/04/28 14:07:56;;;;;;;4.03;3.58;;;;;;;;;;4978978;28;20854;-70
2022/04/28 14:10:21;;;;;;;4.28;3.20;;;;;;;;;;4980195;28;20212;-70
2022/04/28 14:12:47;;;;;;;4.10;3.70;;;;;;;;;;4980908;28;20049;-70
2022/04/28 14:15:15;;;;;;;4.80;3.65;;;;;;;;;;4980419;28;20038;-70
2022/04/28 14:17:41;;;;;;;5.75;4.10;;;;;;;;;;4980042;28;20050;-70
2022/04/28 14:20:12;;;;;;;5.95;4.03;;;;;;;;;;4962234;28;20038;-70
2022/04/28 14:22:38;;;;;;;4.65;3.67;;;;;;;;;;4980300;28;20034;-70
2022/04/28 14:25:04;;;;;;;3.92;3.45;;;;;;;;;;4980605;28;20414;-70
2022/04/28 14:27:30;;;;;;;5.93;3.80;;;;;;;;;;4979165;28;20038;-70
2022/04/28 14:29:55;;;;;;;4.85;3.30;;;;;;;;;;4980105;28;20075;-70
2022/04/28 14:32:21;;;;;;;4.10;3.20;;;;;;;;;;4980033;28;20109;-70
2022/04/28 14:34:47;;;;;;;5.53;3.20;;;;;;;;;;4962828;28;20042;-70
2022/04/28 14:37:12;;;;;;;3.40;3.05;;;;;;;;;;4981883;28;20053;-70
2022/04/28 14:39:39;;;;;;;4.93;3.90;;;;;;;;;;4983968;28;20077;-70
2022/04/28 14:42:06;;;;;;;3.22;2.90;;;;;;;;;;4984445;28;20539;-70
2022/04/28 14:44:32;;;;;;;3.70;3.03;;;;;;;;;;4983714;28;20043;-70
2022/04/28 14:46:58;;;;;;;5.07;3.50;;;;;;;;;;4984066;28;20176;-70
2022/04/28 14:52:19;;;;;;;4.07;3.15;;;;;;;;;;4983964;28;20042;-70
2022/04/28 14:54:53;;;;;;;7.85;2.80;;;;;;;;;;4983800;28;20586;-70
2022/04/28 14:57:28;;;;;;;5.32;3.20;;;;;;;;;;4982894;28;20034;-70
2022/04/28 14:59:55;;;;;;;6.65;3.25;;;;;;;;;;4984148;28;20041;-70
2022/04/28 15:02:20;;;;;;;4.35;2.85;;;;;;;;;;4982976;28;20684;-70
2022/04/28 15:04:47;;;;;;;4.85;3.50;;;;;;;;;;4983956;28;20038;-70
2022/04/28 15:07:14;;;;;;;3.42;3.13;;;;;;;;;;4983562;28;20057;-70
2022/04/28 15:09:40;;;;;;;4.65;3.30;;;;;;;;;;4983205;28;20526;-70
2022/04/28 15:12:06;;;;;;;4.53;3.65;;;;;;;;;;4984246;28;20157;-70
2022/04/28 15:14:32;;;;;;;7.10;3.20;;;;;;;;;;4982183;28;20038;-70
2022/04/28 15:16:57;;;;;;;4.15;2.85;;;;;;;;;;4984551;28;20038;-70
2022/04/28 15:19:23;;;;;;;3.95;3.33;;;;;;;;;;4984870;28;20054;-70
2022/04/28 15:21:48;;;;;;;4.18;3.10;;;;;;;;;;4983808;28;20118;-70
2022/04/28 15:24:14;;;;;;;4.07;3.08;;;;;;;;;;4966467;28;20121;-70
2022/04/28 15:26:39;;;;;;;3.28;2.90;;;;;;;;;;4984470;28;20042;-70
2022/04/28 15:29:05;;;;;;;4.40;2.75;;;;;;;;;;4984764;28;20104;-70
2022/04/28 15:31:35;;;;;;;5.63;3.28;;;;;;;;;;4984664;28;20057;-70
2022/04/28 15:34:01;;;;;;;3.85;2.80;;;;;;;;;;4984485;28;20053;-70
2022/04/28 15:36:27;;;;;;;2.95;2.70;;;;;;;;;;4983571;28;20050;-70
2022/04/28 15:38:53;;;;;;;5.57;3.25;;;;;;;;;;4984480;28;20038;-70